createdAt,value
2022-10-22T00:00:33.357Z,328.20
2022-10-22T00:01:33.238Z,272.10
2022-10-22T00:02:33.290Z,320.80
2022-10-22T00:03:33.225Z,173.30
2022-10-22T00:04:35.410Z,300.40
2022-10-22T00:05:33.227Z,157.80
2022-10-22T00:06:33.206Z,318.40
2022-10-22T00:07:33.194Z,238.40
2022-10-22T00:08:33.272Z,322.70
2022-10-22T00:09:33.170Z,321.80
2022-10-22T00:10:33.200Z,145.60
2022-10-22T00:11:33.144Z,314.00
2022-10-22T00:12:33.126Z,207.30
2022-10-22T00:13:33.098Z,319.60
2022-10-22T00:14:33.087Z,168.30
2022-10-22T00:15:33.122Z,304.30
2022-10-22T00:16:33.082Z,118.70
2022-10-22T00:17:33.068Z,303.00
2022-10-22T00:18:33.073Z,112.20
2022-10-22T00:19:33.041Z,237.80
2022-10-22T00:20:33.077Z,319.10
2022-10-22T00:21:33.024Z,311.40
2022-10-22T00:22:33.011Z,164.30
2022-10-22T00:23:33.002Z,243.50
2022-10-22T00:24:32.992Z,319.90
2022-10-22T00:25:33.020Z,271.90
2022-10-22T00:26:32.950Z,255.10
2022-10-22T00:27:32.944Z,319.30
2022-10-22T00:28:32.927Z,217.40
2022-10-22T00:29:32.927Z,168.70
2022-10-22T00:30:32.968Z,252.80
2022-10-22T00:31:32.898Z,324.80
2022-10-22T00:32:32.889Z,279.20
2022-10-22T00:33:32.890Z,149.80
2022-10-22T00:34:32.870Z,316.00
2022-10-22T00:35:32.899Z,132.10
2022-10-22T00:36:32.853Z,315.80
2022-10-22T00:37:32.828Z,242.80
2022-10-22T00:38:32.830Z,214.60
2022-10-22T00:39:32.802Z,317.00
2022-10-22T00:40:32.836Z,179.50
2022-10-22T00:41:32.787Z,310.60
2022-10-22T00:42:32.755Z,298.50
2022-10-22T00:43:32.761Z,251.00
2022-10-22T00:44:32.741Z,307.10
2022-10-22T00:45:32.790Z,298.80
2022-10-22T00:46:32.754Z,140.60
2022-10-22T00:47:32.730Z,150.60
2022-10-22T00:48:32.709Z,297.60
2022-10-22T00:49:32.684Z,296.40
2022-10-22T00:50:32.722Z,166.90
2022-10-22T00:51:32.666Z,286.40
2022-10-22T00:52:32.673Z,168.60
2022-10-22T00:53:32.636Z,287.10
2022-10-22T00:54:32.626Z,252.70
2022-10-22T00:55:32.660Z,243.80
2022-10-22T00:56:32.606Z,268.60
2022-10-22T00:57:32.611Z,280.30
2022-10-22T00:58:32.589Z,82.40
2022-10-22T00:59:32.585Z,272.30
2022-10-22T01:00:32.676Z,292.30
2022-10-22T01:01:32.540Z,232.60
2022-10-22T01:02:32.556Z,165.50
2022-10-22T01:03:32.515Z,303.70
2022-10-22T01:04:32.529Z,282.20
2022-10-22T01:05:32.556Z,135.60
2022-10-22T01:06:32.487Z,279.10
2022-10-22T01:07:32.473Z,268.90
2022-10-22T01:08:32.493Z,166.70
2022-10-22T01:09:32.465Z,288.50
2022-10-22T01:10:32.501Z,307.30
2022-10-22T01:11:32.444Z,229.20
2022-10-22T01:12:32.427Z,110.50
2022-10-22T01:13:32.398Z,271.70
2022-10-22T01:14:32.390Z,324.40
2022-10-22T01:15:32.425Z,262.70
2022-10-22T01:16:32.384Z,273.00
2022-10-22T01:17:32.362Z,135.00
2022-10-22T01:18:32.369Z,280.10
2022-10-22T01:19:32.348Z,206.70
2022-10-22T01:20:32.347Z,255.40
2022-10-22T01:21:32.360Z,159.50
2022-10-22T01:22:32.294Z,285.90
2022-10-22T01:23:32.301Z,274.40
2022-10-22T01:24:32.283Z,277.30
2022-10-22T01:25:32.281Z,268.20
2022-10-22T01:26:32.320Z,209.90
2022-10-22T01:27:32.250Z,305.90
2022-10-22T01:28:32.254Z,292.40
2022-10-22T01:29:32.219Z,285.00
2022-10-22T01:30:32.225Z,282.20
2022-10-22T01:31:32.256Z,300.40
2022-10-22T01:32:32.202Z,256.00
2022-10-22T01:33:32.208Z,242.10
2022-10-22T01:34:32.168Z,259.40
2022-10-22T01:36:32.223Z,313.30
2022-10-22T01:37:32.148Z,284.80
2022-10-22T01:38:32.125Z,282.10
2022-10-22T01:39:32.122Z,280.60
2022-10-22T01:40:32.102Z,302.40
2022-10-22T01:41:32.135Z,273.70
2022-10-22T01:42:32.095Z,285.30
2022-10-22T01:43:32.055Z,278.60
2022-10-22T01:44:32.090Z,268.10
2022-10-22T01:45:32.034Z,293.80
2022-10-22T01:46:32.082Z,224.10
2022-10-22T01:47:32.019Z,337.10
2022-10-22T01:48:32.013Z,221.50
2022-10-22T01:49:32.004Z,324.40
2022-10-22T01:50:31.991Z,300.90
2022-10-22T01:51:32.018Z,310.10
2022-10-22T01:52:31.965Z,238.40
2022-10-22T01:53:32.009Z,250.00
2022-10-22T01:54:31.948Z,324.20
2022-10-22T01:55:31.910Z,311.00
2022-10-22T01:56:31.962Z,177.70
2022-10-22T01:57:31.901Z,313.80
2022-10-22T01:58:31.919Z,285.30
2022-10-22T01:59:31.882Z,295.20
2022-10-22T02:00:31.912Z,122.70
2022-10-22T02:01:31.900Z,302.30
2022-10-22T02:02:31.845Z,284.60
2022-10-22T02:03:31.841Z,318.10
2022-10-22T02:04:31.828Z,287.80
2022-10-22T02:05:31.823Z,285.50
2022-10-22T02:06:31.846Z,276.40
2022-10-22T02:07:31.785Z,202.10
2022-10-22T02:08:31.777Z,275.70
2022-10-22T02:09:31.768Z,247.20
2022-10-22T02:10:31.772Z,248.60
2022-10-22T02:11:31.803Z,113.70
2022-10-22T02:12:31.721Z,263.60
2022-10-22T02:13:31.706Z,229.60
2022-10-22T02:14:31.699Z,266.80
2022-10-22T02:15:31.683Z,242.40
2022-10-22T02:16:31.739Z,280.10
2022-10-22T02:17:31.683Z,302.80
2022-10-22T02:18:32.089Z,282.80
2022-10-22T02:19:31.634Z,138.10
2022-10-22T02:20:31.653Z,287.70
2022-10-22T02:21:31.678Z,270.30
2022-10-22T02:22:31.634Z,199.70
2022-10-22T02:23:31.598Z,189.00
2022-10-22T02:24:31.605Z,239.80
2022-10-22T02:25:31.583Z,223.80
2022-10-22T02:26:31.600Z,301.10
2022-10-22T02:27:31.558Z,165.60
2022-10-22T02:28:31.550Z,299.40
2022-10-22T02:29:31.551Z,259.10
2022-10-22T02:30:31.532Z,147.50
2022-10-22T02:31:31.562Z,200.40
2022-10-22T02:32:31.508Z,304.40
2022-10-22T02:33:31.487Z,300.50
2022-10-22T02:34:31.488Z,178.70
2022-10-22T02:35:31.467Z,293.30
2022-10-22T02:36:31.501Z,173.40
2022-10-22T02:37:31.446Z,294.00
2022-10-22T02:38:31.426Z,288.70
2022-10-22T02:39:31.429Z,287.90
2022-10-22T02:40:31.401Z,287.60
2022-10-22T02:41:31.440Z,293.00
2022-10-22T02:42:31.386Z,285.40
2022-10-22T02:43:31.362Z,272.20
2022-10-22T02:44:31.343Z,124.20
2022-10-22T02:45:31.341Z,293.00
2022-10-22T02:46:31.385Z,143.00
2022-10-22T02:47:31.325Z,292.80
2022-10-22T02:48:31.321Z,157.00
2022-10-22T02:49:31.315Z,172.80
2022-10-22T02:50:31.284Z,292.40
2022-10-22T02:51:31.315Z,280.80
2022-10-22T02:52:31.270Z,275.10
2022-10-22T02:53:31.268Z,225.00
2022-10-22T02:54:31.242Z,125.30
2022-10-22T02:55:31.245Z,291.30
2022-10-22T02:56:31.282Z,278.70
2022-10-22T02:57:31.209Z,221.80
2022-10-22T02:58:31.184Z,279.90
2022-10-22T02:59:31.187Z,270.80
2022-10-22T03:00:31.223Z,278.00
2022-10-22T03:01:31.212Z,275.30
2022-10-22T03:02:31.172Z,278.80
2022-10-22T03:03:31.146Z,152.00
2022-10-22T03:04:31.153Z,139.80
2022-10-22T03:05:31.137Z,280.40
2022-10-22T03:06:31.155Z,267.60
2022-10-22T03:07:31.105Z,238.10
2022-10-22T03:08:31.110Z,271.50
2022-10-22T03:09:31.067Z,279.80
2022-10-22T03:10:31.064Z,240.40
2022-10-22T03:11:31.098Z,280.00
2022-10-22T03:12:31.041Z,213.80
2022-10-22T03:13:31.022Z,274.00
2022-10-22T03:14:30.993Z,280.50
2022-10-22T03:15:30.983Z,173.90
2022-10-22T03:16:31.028Z,221.40
2022-10-22T03:17:30.983Z,288.40
2022-10-22T03:18:30.965Z,287.60
2022-10-22T03:19:30.960Z,223.60
2022-10-22T03:20:30.956Z,236.50
2022-10-22T03:21:30.982Z,169.10
2022-10-22T03:22:30.927Z,279.60
2022-10-22T03:23:30.901Z,300.40
2022-10-22T03:24:30.885Z,281.10
2022-10-22T03:25:30.891Z,154.80
2022-10-22T03:26:30.922Z,276.60
2022-10-22T03:27:30.870Z,240.10
2022-10-22T03:28:30.858Z,222.60
2022-10-22T03:29:30.855Z,284.00
2022-10-22T03:30:30.821Z,292.80
2022-10-22T03:31:30.857Z,274.60
2022-10-22T03:32:30.800Z,132.30
2022-10-22T03:33:30.810Z,157.20
2022-10-22T03:34:30.779Z,175.20
2022-10-22T03:35:30.767Z,287.30
2022-10-22T03:36:30.800Z,144.90
2022-10-22T03:37:30.751Z,158.20
2022-10-22T03:38:30.741Z,289.80
2022-10-22T03:39:30.728Z,292.30
2022-10-22T03:40:30.719Z,277.90
2022-10-22T03:41:30.762Z,267.20
2022-10-22T03:42:30.684Z,216.20
2022-10-22T03:43:30.692Z,278.10
2022-10-22T03:44:30.652Z,301.40
2022-10-22T03:45:30.740Z,145.60
2022-10-22T03:46:30.669Z,206.90
2022-10-22T03:47:30.646Z,282.20
2022-10-22T03:48:30.619Z,261.00
2022-10-22T03:49:30.612Z,275.30
2022-10-22T03:50:30.634Z,92.10
2022-10-22T03:51:30.640Z,114.00
2022-10-22T03:52:30.588Z,178.10
2022-10-22T03:53:30.561Z,270.80
2022-10-22T03:54:30.594Z,310.20
2022-10-22T03:55:30.549Z,247.20
2022-10-22T03:56:30.584Z,283.10
2022-10-22T03:57:30.527Z,310.40
2022-10-22T03:58:30.509Z,273.00
2022-10-22T03:59:30.507Z,282.40
2022-10-22T04:00:30.490Z,318.20
2022-10-22T04:01:30.574Z,251.50
2022-10-22T04:02:30.466Z,215.20
2022-10-22T04:03:30.465Z,281.10
2022-10-22T04:04:30.436Z,327.60
2022-10-22T04:05:30.421Z,217.70
2022-10-22T04:06:30.451Z,336.20
2022-10-22T04:07:30.396Z,231.60
2022-10-22T04:08:30.455Z,98.60
2022-10-22T04:09:30.385Z,216.90
2022-10-22T04:10:30.356Z,281.90
2022-10-22T04:11:30.397Z,318.30
2022-10-22T04:12:30.341Z,150.20
2022-10-22T04:13:30.330Z,318.80
2022-10-22T04:14:30.316Z,286.90
2022-10-22T04:15:30.306Z,211.30
2022-10-22T04:16:30.679Z,315.70
2022-10-22T04:17:30.325Z,335.00
2022-10-22T04:18:30.293Z,248.10
2022-10-22T04:19:30.273Z,317.70
2022-10-22T04:20:30.256Z,321.50
2022-10-22T04:21:30.251Z,194.00
2022-10-22T04:22:30.290Z,223.70
2022-10-22T04:23:30.227Z,244.20
2022-10-22T04:24:30.201Z,262.50
2022-10-22T04:25:30.198Z,350.40
2022-10-22T04:26:30.183Z,297.20
2022-10-22T04:27:30.214Z,309.70
2022-10-22T04:28:30.163Z,251.70
2022-10-22T04:29:30.163Z,161.40
2022-10-22T04:30:30.153Z,166.90
2022-10-22T04:31:30.126Z,220.50
2022-10-22T04:32:30.169Z,177.60
2022-10-22T04:33:30.103Z,129.40
2022-10-22T04:34:30.105Z,288.60
2022-10-22T04:35:30.102Z,211.50
2022-10-22T04:36:30.096Z,338.50
2022-10-22T04:37:30.102Z,276.80
2022-10-22T04:38:30.040Z,192.50
2022-10-22T04:39:30.031Z,222.70
2022-10-22T04:40:30.031Z,167.60
2022-10-22T04:41:30.005Z,156.30
2022-10-22T04:42:30.039Z,142.90
2022-10-22T04:43:29.995Z,149.50
2022-10-22T04:44:29.979Z,339.10
2022-10-22T04:45:29.950Z,351.80
2022-10-22T04:46:29.981Z,335.10
2022-10-22T04:47:29.923Z,279.10
2022-10-22T04:48:29.922Z,354.20
2022-10-22T04:49:29.921Z,317.90
2022-10-22T04:50:29.894Z,363.30
2022-10-22T04:51:29.929Z,145.90
2022-10-22T04:52:29.871Z,114.10
2022-10-22T04:53:29.886Z,182.50
2022-10-22T04:54:32.284Z,201.00
2022-10-22T04:56:29.873Z,349.40
2022-10-22T04:57:29.825Z,303.20
2022-10-22T04:58:29.822Z,336.90
2022-10-22T04:59:29.803Z,360.10
2022-10-22T05:00:29.784Z,355.50
2022-10-22T05:01:29.932Z,340.50
2022-10-22T05:02:29.778Z,340.00
2022-10-22T05:03:29.767Z,245.90
2022-10-22T05:04:29.740Z,361.50
2022-10-22T05:05:29.746Z,367.70
2022-10-22T05:06:29.784Z,166.00
2022-10-22T05:07:29.702Z,180.60
2022-10-22T05:08:29.701Z,239.80
2022-10-22T05:09:29.682Z,225.80
2022-10-22T05:10:29.684Z,355.40
2022-10-22T05:11:29.716Z,366.70
2022-10-22T05:12:29.663Z,267.50
2022-10-22T05:13:29.622Z,291.80
2022-10-22T05:14:29.618Z,174.00
2022-10-22T05:15:29.599Z,205.60
2022-10-22T05:16:29.643Z,270.60
2022-10-22T05:17:29.589Z,348.20
2022-10-22T05:18:29.560Z,284.90
2022-10-22T05:19:29.570Z,158.90
2022-10-22T05:20:29.552Z,264.60
2022-10-22T05:21:29.562Z,365.70
2022-10-22T05:22:29.599Z,347.60
2022-10-22T05:23:29.528Z,235.80
2022-10-22T05:24:29.521Z,198.30
2022-10-22T05:25:29.505Z,136.20
2022-10-22T05:26:29.477Z,368.60
2022-10-22T05:27:29.532Z,324.30
2022-10-22T05:28:29.449Z,338.70
2022-10-22T05:29:29.488Z,371.70
2022-10-22T05:30:29.436Z,368.90
2022-10-22T05:31:29.506Z,277.30
2022-10-22T05:32:29.423Z,348.60
2022-10-22T05:33:29.399Z,368.70
2022-10-22T05:34:29.417Z,355.60
2022-10-22T05:35:29.377Z,272.60
2022-10-22T05:36:29.418Z,351.80
2022-10-22T05:37:29.372Z,203.00
2022-10-22T05:38:29.359Z,282.90
2022-10-22T05:39:29.347Z,322.70
2022-10-22T05:40:31.027Z,259.80
2022-10-22T05:41:29.349Z,360.50
2022-10-22T05:42:29.322Z,271.80
2022-10-22T05:43:29.311Z,162.30
2022-10-22T05:44:29.286Z,252.30
2022-10-22T05:45:29.289Z,220.80
2022-10-22T05:46:29.293Z,191.60
2022-10-22T05:47:29.241Z,195.00
2022-10-22T05:48:29.241Z,194.30
2022-10-22T05:49:29.228Z,174.70
2022-10-22T05:50:29.229Z,269.70
2022-10-22T05:51:29.256Z,213.10
2022-10-22T05:52:29.206Z,270.20
2022-10-22T05:53:29.186Z,247.00
2022-10-22T05:54:29.154Z,312.80
2022-10-22T05:55:29.169Z,322.40
2022-10-22T05:56:29.200Z,375.20
2022-10-22T05:57:29.143Z,322.80
2022-10-22T05:58:29.123Z,336.90
2022-10-22T05:59:29.123Z,369.30
2022-10-22T06:00:29.173Z,370.90
2022-10-22T06:01:29.141Z,376.80
2022-10-22T06:02:29.161Z,330.80
2022-10-22T06:03:29.062Z,353.70
2022-10-22T06:04:29.054Z,388.90
2022-10-22T06:05:29.050Z,405.00
2022-10-22T06:06:29.073Z,346.50
2022-10-22T06:07:29.045Z,347.60
2022-10-22T06:08:29.028Z,331.20
2022-10-22T06:09:29.056Z,338.20
2022-10-22T06:10:29.002Z,288.60
2022-10-22T06:11:32.491Z,352.90
2022-10-22T06:12:29.964Z,199.40
2022-10-22T06:13:28.947Z,158.80
2022-10-22T06:14:28.937Z,346.40
2022-10-22T06:15:28.925Z,176.30
2022-10-22T06:16:28.952Z,171.50
2022-10-22T06:17:28.885Z,350.30
2022-10-22T06:18:28.873Z,379.60
2022-10-22T06:19:28.885Z,199.00
2022-10-22T06:20:28.884Z,272.20
2022-10-22T06:21:28.898Z,372.40
2022-10-22T06:22:28.848Z,398.70
2022-10-22T06:23:28.849Z,294.90
2022-10-22T06:24:28.823Z,221.50
2022-10-22T06:25:28.825Z,257.80
2022-10-22T06:26:28.953Z,92.80
2022-10-22T06:27:28.790Z,188.30
2022-10-22T06:28:28.785Z,235.70
2022-10-22T06:29:28.743Z,263.10
2022-10-22T06:30:28.745Z,180.70
2022-10-22T06:31:28.786Z,223.80
2022-10-22T06:32:28.726Z,323.50
2022-10-22T06:33:28.711Z,367.50
2022-10-22T06:34:28.703Z,383.90
2022-10-22T06:35:28.690Z,299.70
2022-10-22T06:36:28.771Z,374.70
2022-10-22T06:37:28.675Z,390.00
2022-10-22T06:38:28.662Z,73.70
2022-10-22T06:39:28.642Z,302.40
2022-10-22T06:40:28.639Z,378.70
2022-10-22T06:41:29.535Z,395.20
2022-10-22T06:42:28.614Z,242.70
2022-10-22T06:43:28.585Z,120.50
2022-10-22T06:44:28.591Z,102.00
2022-10-22T06:45:28.570Z,66.50
2022-10-22T06:46:28.611Z,233.30
2022-10-22T06:47:28.557Z,310.20
2022-10-22T06:48:28.532Z,380.70
2022-10-22T06:49:28.503Z,75.80
2022-10-22T06:50:28.536Z,74.30
2022-10-22T06:51:28.541Z,355.40
2022-10-22T06:52:28.496Z,351.10
2022-10-22T06:53:28.484Z,297.70
2022-10-22T06:54:28.474Z,297.50
2022-10-22T06:55:28.446Z,81.20
2022-10-22T06:56:28.492Z,268.50
2022-10-22T06:57:28.435Z,400.20
2022-10-22T06:58:28.421Z,373.90
2022-10-22T06:59:28.407Z,380.20
2022-10-22T07:00:28.419Z,143.80
2022-10-22T07:01:28.474Z,145.30
2022-10-22T07:02:28.377Z,361.60
2022-10-22T07:03:28.361Z,64.90
2022-10-22T07:04:28.340Z,61.00
2022-10-22T07:05:28.338Z,74.30
2022-10-22T07:06:28.374Z,77.30
2022-10-22T07:07:28.316Z,51.80
2022-10-22T07:08:28.308Z,325.20
2022-10-22T07:09:28.339Z,54.20
2022-10-22T07:10:30.047Z,126.50
2022-10-22T07:11:28.314Z,52.00
2022-10-22T07:12:28.265Z,202.30
2022-10-22T07:13:28.245Z,229.40
2022-10-22T07:14:28.237Z,276.20
2022-10-22T07:15:28.227Z,291.90
2022-10-22T07:16:32.027Z,136.50
2022-10-22T07:17:28.229Z,134.70
2022-10-22T07:18:28.194Z,79.00
2022-10-22T07:19:28.166Z,342.50
2022-10-22T07:20:28.170Z,216.60
2022-10-22T07:21:28.184Z,66.60
2022-10-22T07:22:28.128Z,282.80
2022-10-22T07:23:28.121Z,243.40
2022-10-22T07:24:28.130Z,82.50
2022-10-22T07:25:28.108Z,204.10
2022-10-22T07:26:28.140Z,212.90
2022-10-22T07:27:28.077Z,227.10
2022-10-22T07:28:28.075Z,65.90
2022-10-22T07:29:28.062Z,245.00
2022-10-22T07:30:28.059Z,155.90
2022-10-22T07:31:28.048Z,130.60
2022-10-22T07:32:28.090Z,243.40
2022-10-22T07:33:28.015Z,159.40
2022-10-22T07:34:27.998Z,257.70
2022-10-22T07:35:27.987Z,97.50
2022-10-22T07:36:28.011Z,161.20
2022-10-22T07:37:28.005Z,257.10
2022-10-22T07:38:27.959Z,133.30
2022-10-22T07:39:27.948Z,102.60
2022-10-22T07:40:27.939Z,83.90
2022-10-22T07:41:27.926Z,74.70
2022-10-22T07:43:27.904Z,274.40
2022-10-22T07:44:27.897Z,298.60
2022-10-22T07:45:27.897Z,220.80
2022-10-22T07:46:27.887Z,148.70
2022-10-22T07:47:27.891Z,68.60
2022-10-22T07:48:27.859Z,272.60
2022-10-22T07:49:27.834Z,258.20
2022-10-22T07:50:27.837Z,153.40
2022-10-22T07:51:27.814Z,187.60
2022-10-22T07:52:27.847Z,91.00
2022-10-22T07:53:27.775Z,188.70
2022-10-22T07:54:27.772Z,57.20
2022-10-22T07:55:27.775Z,217.60
2022-10-22T07:56:27.760Z,81.10
2022-10-22T07:57:27.806Z,115.70
2022-10-22T07:58:27.735Z,227.80
2022-10-22T07:59:27.719Z,377.40
2022-10-22T08:00:27.707Z,136.00
2022-10-22T08:01:27.757Z,56.60
2022-10-22T08:02:27.733Z,110.90
2022-10-22T08:03:27.689Z,101.70
2022-10-22T08:04:27.664Z,234.10
2022-10-22T08:05:27.655Z,196.50
2022-10-22T08:06:27.692Z,66.30
2022-10-22T08:07:27.649Z,290.70
2022-10-22T08:08:30.461Z,273.40
2022-10-22T08:09:27.617Z,139.40
2022-10-22T08:10:27.589Z,61.20
2022-10-22T08:11:27.632Z,299.20
2022-10-22T08:12:27.581Z,76.90
2022-10-22T08:13:27.555Z,68.50
2022-10-22T08:14:27.563Z,58.70
2022-10-22T08:15:27.572Z,153.70
2022-10-22T08:16:27.578Z,296.90
2022-10-22T08:17:27.513Z,305.60
2022-10-22T08:18:27.497Z,258.40
2022-10-22T08:19:27.493Z,118.40
2022-10-22T08:20:27.483Z,45.60
2022-10-22T08:21:27.504Z,144.50
2022-10-22T08:22:27.445Z,261.10
2022-10-22T08:23:28.632Z,281.60
2022-10-22T08:24:27.418Z,199.10
2022-10-22T08:25:27.405Z,32.10
2022-10-22T08:26:27.445Z,29.30
2022-10-22T08:27:27.389Z,28.80
2022-10-22T08:28:27.394Z,68.10
2022-10-22T08:29:27.364Z,46.50
2022-10-22T08:30:27.357Z,28.10
2022-10-22T08:31:27.334Z,27.90
2022-10-22T08:33:27.346Z,30.60
2022-10-22T08:34:27.315Z,49.30
2022-10-22T08:35:27.285Z,144.20
2022-10-22T08:36:27.301Z,153.20
2022-10-22T08:37:27.331Z,165.70
2022-10-22T08:38:27.275Z,233.20
2022-10-22T08:39:27.253Z,73.00
2022-10-22T08:40:27.254Z,27.30
2022-10-22T08:41:27.224Z,36.40
2022-10-22T08:42:27.270Z,25.20
2022-10-22T08:43:27.261Z,194.00
2022-10-22T08:44:27.218Z,145.70
2022-10-22T08:45:27.193Z,26.80
2022-10-22T08:46:27.185Z,46.80
2022-10-22T08:47:27.212Z,158.90
2022-10-22T08:48:27.156Z,202.30
2022-10-22T08:49:27.155Z,257.80
2022-10-22T08:50:27.133Z,208.00
2022-10-22T08:51:27.115Z,150.50
2022-10-22T08:52:27.144Z,35.00
2022-10-22T08:53:27.118Z,40.20
2022-10-22T08:54:27.078Z,89.60
2022-10-22T08:55:27.050Z,117.90
2022-10-22T08:56:27.114Z,118.20
2022-10-22T08:57:27.082Z,136.10
2022-10-22T08:58:27.033Z,140.70
2022-10-22T08:59:27.035Z,196.50
2022-10-22T09:00:27.002Z,143.20
2022-10-22T09:01:27.014Z,139.90
2022-10-22T09:02:27.041Z,167.90
2022-10-22T09:03:26.998Z,226.60
2022-10-22T09:04:26.972Z,173.10
2022-10-22T09:05:26.956Z,88.30
2022-10-22T09:06:26.957Z,114.30
2022-10-22T09:07:26.981Z,202.70
2022-10-22T09:08:26.934Z,170.10
2022-10-22T09:09:26.914Z,198.70
2022-10-22T09:10:26.919Z,76.00
2022-10-22T09:11:26.897Z,148.80
2022-10-22T09:12:26.933Z,144.50
2022-10-22T09:13:26.891Z,63.60
2022-10-22T09:14:26.869Z,154.10
2022-10-22T09:15:26.853Z,140.30
2022-10-22T09:16:26.838Z,84.50
2022-10-22T09:17:26.866Z,43.00
2022-10-22T09:18:26.813Z,116.90
2022-10-22T09:19:26.813Z,90.30
2022-10-22T09:20:26.793Z,38.20
2022-10-22T09:21:26.794Z,68.00
2022-10-22T09:22:26.846Z,134.00
2022-10-22T09:23:26.752Z,66.90
2022-10-22T09:24:28.470Z,43.20
2022-10-22T09:25:26.734Z,90.60
2022-10-22T09:26:26.737Z,125.60
2022-10-22T09:27:26.758Z,102.90
2022-10-22T09:28:26.690Z,80.80
2022-10-22T09:29:26.698Z,102.60
2022-10-22T09:30:26.683Z,67.10
2022-10-22T09:31:26.682Z,66.90
2022-10-22T09:32:26.685Z,114.00
2022-10-22T09:33:26.644Z,117.80
2022-10-22T09:34:26.633Z,70.00
2022-10-22T09:35:26.650Z,39.50
2022-10-22T09:36:26.616Z,75.70
2022-10-22T09:37:26.647Z,121.00
2022-10-22T09:38:26.573Z,143.80
2022-10-22T09:39:26.601Z,87.50
2022-10-22T09:40:26.563Z,43.20
2022-10-22T09:41:26.544Z,54.60
2022-10-22T09:42:26.583Z,99.60
2022-10-22T09:43:26.533Z,82.80
2022-10-22T09:44:26.504Z,42.10
2022-10-22T09:45:26.494Z,86.80
2022-10-22T09:46:26.484Z,116.50
2022-10-22T09:47:37.331Z,65.70
2022-10-22T09:48:27.479Z,43.40
2022-10-22T09:49:26.458Z,79.90
2022-10-22T09:50:26.453Z,84.70
2022-10-22T09:51:26.459Z,115.80
2022-10-22T09:52:26.451Z,44.90
2022-10-22T09:53:26.391Z,51.20
2022-10-22T09:54:26.381Z,73.00
2022-10-22T09:55:26.373Z,111.60
2022-10-22T09:56:26.370Z,101.60
2022-10-22T09:57:26.399Z,35.20
2022-10-22T09:58:26.359Z,99.30
2022-10-22T09:59:26.342Z,119.20
2022-10-22T10:00:26.314Z,34.40
2022-10-22T10:01:26.317Z,110.20
2022-10-22T10:02:42.505Z,115.10
2022-10-22T10:03:27.350Z,63.60
2022-10-22T10:04:26.302Z,81.70
2022-10-22T10:05:26.290Z,138.10
2022-10-22T10:06:26.255Z,83.00
2022-10-22T10:07:26.292Z,87.40
2022-10-22T10:08:26.232Z,153.80
2022-10-22T10:09:26.236Z,168.80
2022-10-22T10:10:26.220Z,116.50
2022-10-22T10:11:29.090Z,68.40
2022-10-22T10:12:26.231Z,174.10
2022-10-22T10:13:26.174Z,111.10
2022-10-22T10:14:26.179Z,60.20
2022-10-22T10:15:26.161Z,100.60
2022-10-22T10:16:26.184Z,80.80
2022-10-22T10:17:26.194Z,87.50
2022-10-22T10:18:26.111Z,73.20
2022-10-22T10:19:26.116Z,49.50
2022-10-22T10:20:26.096Z,66.30
2022-10-22T10:21:26.121Z,52.50
2022-10-22T10:22:26.123Z,71.70
2022-10-22T10:23:26.050Z,71.10
2022-10-22T10:24:26.049Z,284.10
2022-10-22T10:25:26.035Z,999.90
2022-10-22T10:26:26.036Z,999.90
2022-10-22T10:27:26.071Z,563.10
2022-10-22T10:28:26.015Z,173.90
2022-10-22T10:29:26.017Z,98.80
2022-10-22T10:30:25.989Z,496.10
2022-10-22T10:31:25.980Z,753.70
2022-10-22T10:32:26.000Z,619.60
2022-10-22T10:33:25.931Z,680.40
2022-10-22T10:34:25.941Z,699.60
2022-10-22T10:35:25.941Z,282.80
2022-10-22T10:36:25.907Z,503.40
2022-10-22T10:37:25.955Z,823.50
2022-10-22T10:38:28.781Z,961.70
2022-10-22T10:39:25.875Z,999.90
2022-10-22T10:40:25.876Z,569.80
2022-10-22T10:41:25.859Z,999.90
2022-10-22T10:42:25.881Z,192.40
2022-10-22T10:43:25.837Z,189.20
2022-10-22T10:44:25.829Z,285.60
2022-10-22T10:45:25.817Z,999.90
2022-10-22T10:46:25.791Z,999.90
2022-10-22T10:47:25.830Z,999.90
2022-10-22T10:48:25.773Z,999.90
2022-10-22T10:49:25.792Z,999.90
2022-10-22T10:50:25.728Z,999.90
2022-10-22T10:51:25.752Z,999.90
2022-10-22T10:52:25.767Z,999.90
2022-10-22T10:53:25.708Z,999.90
2022-10-22T10:54:25.721Z,999.90
2022-10-22T10:55:25.685Z,999.90
2022-10-22T10:56:25.729Z,999.90
2022-10-22T10:57:25.671Z,999.90
2022-10-22T10:58:25.677Z,999.90
2022-10-22T10:59:25.659Z,999.90
2022-10-22T11:00:25.635Z,999.90
2022-10-22T11:01:25.729Z,999.90
2022-10-22T11:02:25.616Z,999.90
2022-10-22T11:03:25.630Z,999.90
2022-10-22T11:04:25.602Z,999.90
2022-10-22T11:05:25.581Z,999.90
2022-10-22T11:06:25.843Z,999.90
2022-10-22T11:07:34.357Z,999.90
2022-10-22T11:08:26.536Z,999.90
2022-10-22T11:09:25.531Z,999.90
2022-10-22T11:10:25.524Z,999.90
2022-10-22T11:11:25.550Z,999.90
2022-10-22T11:12:25.517Z,999.90
2022-10-22T11:13:25.512Z,999.90
2022-10-22T11:14:27.855Z,999.90
2022-10-22T11:15:25.477Z,999.90
2022-10-22T11:16:25.517Z,999.90
2022-10-22T11:17:25.436Z,999.90
2022-10-22T11:18:25.435Z,999.90
2022-10-22T11:19:46.062Z,999.90
2022-10-22T11:20:26.419Z,999.90
2022-10-22T11:21:25.453Z,999.90
2022-10-22T11:22:26.894Z,999.90
2022-10-22T11:23:25.764Z,999.90
2022-10-22T11:24:25.341Z,999.90
2022-10-22T11:25:25.332Z,999.90
2022-10-22T11:26:25.369Z,999.90
2022-10-22T11:27:25.346Z,999.90
2022-10-22T11:28:25.320Z,999.90
2022-10-22T11:29:27.207Z,999.90
2022-10-22T11:30:25.291Z,999.90
2022-10-22T11:31:25.333Z,999.90
2022-10-22T11:32:25.268Z,999.90
2022-10-22T11:33:25.252Z,999.90
2022-10-22T11:34:34.155Z,999.90
2022-10-22T11:35:26.246Z,999.90
2022-10-22T11:36:25.306Z,999.90
2022-10-22T11:37:25.213Z,999.90
2022-10-22T11:38:25.219Z,999.90
2022-10-22T11:39:25.191Z,999.90
2022-10-22T11:40:25.237Z,999.90
2022-10-22T11:41:25.176Z,999.90
2022-10-22T11:42:25.179Z,999.90
2022-10-22T11:43:25.166Z,999.90
2022-10-22T11:44:25.186Z,999.90
2022-10-22T11:45:25.142Z,999.90
2022-10-22T11:46:25.168Z,999.90
2022-10-22T11:47:25.115Z,999.90
2022-10-22T11:48:25.093Z,999.90
2022-10-22T11:49:25.080Z,999.90
2022-10-22T11:50:25.073Z,999.90
2022-10-22T11:51:25.110Z,999.90
2022-10-22T11:52:25.050Z,999.90
2022-10-22T11:53:25.016Z,999.90
2022-10-22T11:54:25.010Z,999.90
2022-10-22T11:55:25.004Z,999.90
2022-10-22T11:56:25.028Z,999.90
2022-10-22T11:57:24.997Z,999.90
2022-10-22T11:58:24.973Z,999.90
2022-10-22T11:59:24.978Z,999.90
2022-10-22T12:00:24.954Z,999.90
2022-10-22T12:01:25.087Z,999.90
2022-10-22T12:02:24.936Z,999.90
2022-10-22T12:03:24.919Z,999.90
2022-10-22T12:04:24.948Z,999.90
2022-10-22T12:05:24.898Z,999.90
2022-10-22T12:06:24.937Z,999.90
2022-10-22T12:07:24.863Z,999.90
2022-10-22T12:08:24.858Z,999.90
2022-10-22T12:09:24.862Z,999.90
2022-10-22T12:10:24.825Z,999.90
2022-10-22T12:11:24.865Z,999.90
2022-10-22T12:12:24.821Z,999.90
2022-10-22T12:13:24.816Z,999.90
2022-10-22T12:14:24.795Z,999.90
2022-10-22T12:15:24.774Z,999.90
2022-10-22T12:16:32.374Z,999.90
2022-10-22T12:17:25.765Z,999.90
2022-10-22T12:18:24.755Z,999.90
2022-10-22T12:19:24.740Z,999.90
2022-10-22T12:20:24.731Z,999.90
2022-10-22T12:21:24.752Z,999.90
2022-10-22T12:22:24.693Z,999.90
2022-10-22T12:23:24.700Z,999.90
2022-10-22T12:24:24.667Z,999.90
2022-10-22T12:25:24.666Z,999.90
2022-10-22T12:26:24.724Z,999.90
2022-10-22T12:27:24.636Z,999.90
2022-10-22T12:28:24.633Z,999.90
2022-10-22T12:29:24.652Z,999.90
2022-10-22T12:30:24.593Z,999.90
2022-10-22T12:31:24.651Z,999.90
2022-10-22T12:32:24.596Z,999.90
2022-10-22T12:33:24.575Z,999.90
2022-10-22T12:34:24.550Z,999.90
2022-10-22T12:35:24.556Z,999.90